createdAt,value
2018-12-24T00:04:29.334Z,7.47
2018-12-24T00:10:35.716Z,5.67
2018-12-24T00:16:42.115Z,6.73
2018-12-24T00:22:48.438Z,4.90
2018-12-24T00:28:54.869Z,4.50
2018-12-24T00:35:01.103Z,4.70
2018-12-24T00:41:07.589Z,4.53
2018-12-24T00:47:13.865Z,5.17
2018-12-24T00:53:20.257Z,5.40
2018-12-24T00:59:26.668Z,5.90
2018-12-24T01:05:32.991Z,5.83
2018-12-24T01:11:39.241Z,5.27
2018-12-24T01:17:45.545Z,4.93
2018-12-24T01:23:51.804Z,5.50
2018-12-24T01:29:58.048Z,4.90
2018-12-24T01:36:04.696Z,4.87
2018-12-24T01:42:10.935Z,9.37
2018-12-24T01:48:17.567Z,11.60
2018-12-24T01:54:23.871Z,14.13
2018-12-24T02:00:30.452Z,16.13
2018-12-24T02:06:36.788Z,22.07
2018-12-24T02:12:43.064Z,19.00
2018-12-24T02:18:49.516Z,18.83
2018-12-24T02:24:55.799Z,17.97
2018-12-24T02:31:02.059Z,15.90
2018-12-24T02:37:08.347Z,12.80
2018-12-24T02:43:14.588Z,12.10
2018-12-24T02:49:20.879Z,14.77
2018-12-24T02:55:27.252Z,13.13
2018-12-24T03:01:33.593Z,11.93
2018-12-24T03:07:40.028Z,11.90
2018-12-24T03:13:46.514Z,12.37
2018-12-24T03:20:41.829Z,13.87
2018-12-24T03:26:47.590Z,15.80
2018-12-24T03:32:53.416Z,15.10
2018-12-24T03:38:59.222Z,15.27
2018-12-24T03:45:05.077Z,15.33
2018-12-24T03:51:10.858Z,16.27
2018-12-24T03:57:16.789Z,15.80
2018-12-24T04:03:22.473Z,20.07
2018-12-24T04:09:28.506Z,15.37
2018-12-24T04:15:43.133Z,14.77
2018-12-24T04:21:48.994Z,15.40
2018-12-24T04:27:54.901Z,12.63
2018-12-24T04:34:00.630Z,12.17
2018-12-24T04:40:06.507Z,9.93
2018-12-24T04:46:12.565Z,11.00
2018-12-24T04:52:18.438Z,11.27
2018-12-24T04:58:24.419Z,10.53
2018-12-24T05:04:30.213Z,9.50
2018-12-24T05:10:55.084Z,8.67
2018-12-24T05:17:01.852Z,9.20
2018-12-24T05:23:07.571Z,6.47
2018-12-24T05:29:13.483Z,6.87
2018-12-24T05:35:19.938Z,4.63
2018-12-24T05:41:25.835Z,5.13
2018-12-24T05:47:31.527Z,5.00
2018-12-24T05:53:37.449Z,8.43
2018-12-24T05:59:43.150Z,3.63
2018-12-24T06:05:48.844Z,4.13
2018-12-24T06:11:56.211Z,5.53
2018-12-24T06:18:02.043Z,3.30
2018-12-24T06:24:07.818Z,3.33
2018-12-24T06:30:13.699Z,4.27
2018-12-24T06:36:19.604Z,4.70
2018-12-24T06:42:25.280Z,4.33
2018-12-24T06:48:31.115Z,3.03
2018-12-24T06:54:36.890Z,3.30
2018-12-24T07:00:42.939Z,3.73
2018-12-24T07:06:48.633Z,2.63
2018-12-24T07:12:54.284Z,6.53
2018-12-24T07:19:00.027Z,2.80
2018-12-24T07:25:06.039Z,3.70
2018-12-24T07:31:12.028Z,4.60
2018-12-24T07:37:17.930Z,5.30
2018-12-24T07:43:23.713Z,3.33
2018-12-24T07:49:29.504Z,2.93
2018-12-24T07:55:35.208Z,4.73
2018-12-24T08:01:40.939Z,4.70
2018-12-24T08:07:46.738Z,2.87
2018-12-24T08:13:52.424Z,3.47
2018-12-24T08:19:58.159Z,3.17
2018-12-24T08:26:03.888Z,4.23
2018-12-24T08:32:11.456Z,7.40
2018-12-24T08:38:16.959Z,3.50
2018-12-24T08:44:22.924Z,3.90
2018-12-24T08:50:28.670Z,3.37
2018-12-24T08:56:34.631Z,4.33
2018-12-24T09:02:40.765Z,4.60
2018-12-24T09:08:46.740Z,4.60
2018-12-24T09:14:52.831Z,3.37
2018-12-24T09:20:58.890Z,3.03
2018-12-24T09:27:04.731Z,4.17
2018-12-24T09:33:10.737Z,3.20
2018-12-24T09:39:16.527Z,3.83
2018-12-24T09:45:22.257Z,2.93
2018-12-24T09:51:28.022Z,2.70
2018-12-24T09:57:33.799Z,2.10
2018-12-24T10:03:51.579Z,2.17
2018-12-24T10:09:57.700Z,1.77
2018-12-24T10:16:04.137Z,1.83
2018-12-24T10:22:09.919Z,1.50
2018-12-24T10:28:15.773Z,1.63
2018-12-24T10:34:21.580Z,4.13
2018-12-24T10:40:27.632Z,1.77
2018-12-24T10:46:33.382Z,1.73
2018-12-24T10:52:39.614Z,2.30
2018-12-24T10:58:45.668Z,2.33
2018-12-24T11:04:51.659Z,2.53
2018-12-24T11:10:57.402Z,5.60
2018-12-24T11:17:03.331Z,7.37
2018-12-24T11:23:09.813Z,2.43
2018-12-24T11:29:15.698Z,1.97
2018-12-24T11:35:21.910Z,1.97
2018-12-24T11:41:27.853Z,2.20
2018-12-24T11:47:33.610Z,2.33
2018-12-24T11:53:39.589Z,2.30
2018-12-24T11:59:45.267Z,2.30
2018-12-24T12:05:51.087Z,2.33
2018-12-24T12:11:56.834Z,1.90
2018-12-24T12:18:02.547Z,2.10
2018-12-24T12:24:08.751Z,1.60
2018-12-24T12:30:15.232Z,2.13
2018-12-24T12:36:22.008Z,1.60
2018-12-24T12:42:27.838Z,2.23
2018-12-24T12:48:33.738Z,2.07
2018-12-24T12:54:40.021Z,2.10
2018-12-24T13:00:45.725Z,1.80
2018-12-24T13:06:51.468Z,2.50
2018-12-24T13:12:57.276Z,2.13
2018-12-24T13:19:02.989Z,2.73
2018-12-24T13:25:08.788Z,2.10
2018-12-24T13:31:14.794Z,2.30
2018-12-24T13:37:20.907Z,2.50
2018-12-24T13:43:26.661Z,2.20
2018-12-24T13:49:32.631Z,1.60
2018-12-24T13:55:38.309Z,1.57
2018-12-24T14:01:44.196Z,2.20
2018-12-24T14:07:50.624Z,1.77
2018-12-24T14:13:56.321Z,1.97
2018-12-24T14:20:03.074Z,1.40
2018-12-24T14:26:08.983Z,1.47
2018-12-24T14:32:15.478Z,2.90
2018-12-24T14:38:21.463Z,2.00
2018-12-24T14:44:27.867Z,3.37
2018-12-24T14:50:33.597Z,1.50
2018-12-24T14:56:39.620Z,2.20
2018-12-24T15:02:45.398Z,2.10
2018-12-24T15:08:51.565Z,3.00
2018-12-24T15:14:57.477Z,1.83
2018-12-24T15:21:03.651Z,3.00
2018-12-24T15:27:09.577Z,2.33
2018-12-24T15:33:15.477Z,2.90
2018-12-24T15:39:21.632Z,3.30
2018-12-24T15:45:27.507Z,2.60
2018-12-24T15:51:33.432Z,3.13
2018-12-24T15:57:39.514Z,5.07
2018-12-24T16:03:45.369Z,4.10
2018-12-24T16:09:51.090Z,4.70
2018-12-24T16:15:57.114Z,4.40
2018-12-24T16:22:03.378Z,3.70
2018-12-24T16:28:09.379Z,4.77
2018-12-24T16:34:15.738Z,6.93
2018-12-24T16:40:21.822Z,4.13
2018-12-24T16:46:28.336Z,5.97
2018-12-24T16:52:34.387Z,12.77
2018-12-24T16:58:40.209Z,7.00
2018-12-24T17:04:45.904Z,6.40
2018-12-24T17:10:51.721Z,10.10
2018-12-24T17:16:57.884Z,5.77
2018-12-24T17:23:03.764Z,5.03
2018-12-24T17:29:09.981Z,5.30
2018-12-24T17:35:16.266Z,5.83
2018-12-24T17:41:22.773Z,5.60
2018-12-24T17:47:29.077Z,8.00
2018-12-24T17:53:35.455Z,56.97
2018-12-24T17:59:41.845Z,9.07
2018-12-24T18:05:48.302Z,15.40
2018-12-24T18:11:54.556Z,6.10
2018-12-24T18:18:00.725Z,5.00
2018-12-24T18:24:07.367Z,8.07
2018-12-24T18:30:13.659Z,14.93
2018-12-24T18:36:20.076Z,12.20
2018-12-24T18:42:26.202Z,7.63
2018-12-24T18:48:32.394Z,11.47
2018-12-24T18:54:38.165Z,8.43
2018-12-24T19:00:43.944Z,8.17
2018-12-24T19:06:49.902Z,8.60
2018-12-24T19:12:56.337Z,9.10
2018-12-24T19:19:02.516Z,7.17
2018-12-24T19:25:09.168Z,7.53
2018-12-24T19:31:15.602Z,4.93
2018-12-24T19:37:21.953Z,9.73
2018-12-24T19:43:27.639Z,9.87
2018-12-24T19:49:33.346Z,5.73
2018-12-24T19:55:39.264Z,7.13
2018-12-24T20:01:44.993Z,10.30
2018-12-24T20:07:51.559Z,7.93
2018-12-24T20:13:57.273Z,7.53
2018-12-24T20:20:03.163Z,9.67
2018-12-24T20:26:08.943Z,8.40
2018-12-24T20:32:14.734Z,9.43
2018-12-24T20:38:20.677Z,9.77
2018-12-24T20:44:26.697Z,8.57
2018-12-24T20:50:32.476Z,8.70
2018-12-24T20:56:38.512Z,10.87
2018-12-24T21:02:44.300Z,9.30
2018-12-24T21:08:50.285Z,10.10
2018-12-24T21:14:56.047Z,9.00
2018-12-24T21:21:02.278Z,10.03
2018-12-24T21:27:08.391Z,10.30
2018-12-24T21:33:14.284Z,11.53
2018-12-24T21:39:19.967Z,11.40
2018-12-24T21:45:25.774Z,9.97
2018-12-24T21:51:31.827Z,9.80
2018-12-24T21:57:38.159Z,10.70
2018-12-24T22:03:43.919Z,10.10
2018-12-24T22:09:49.639Z,11.23
2018-12-24T22:15:55.531Z,9.97
2018-12-24T22:22:01.305Z,11.53
2018-12-24T22:28:07.038Z,11.10
2018-12-24T22:34:12.841Z,9.67
2018-12-24T22:40:18.567Z,9.30
2018-12-24T22:46:24.444Z,10.27
2018-12-24T22:52:30.814Z,9.27
2018-12-24T22:58:36.746Z,9.60
2018-12-24T23:04:42.504Z,9.93
2018-12-24T23:10:48.236Z,10.33
2018-12-24T23:16:55.476Z,8.90
2018-12-24T23:23:01.209Z,10.67
2018-12-24T23:29:07.177Z,9.50
2018-12-24T23:35:12.993Z,9.47
2018-12-24T23:41:18.717Z,9.03
2018-12-24T23:47:24.664Z,8.47
2018-12-24T23:53:41.710Z,8.20
2018-12-24T23:59:47.530Z,8.07
